JapanFixed distance
Yatsugatake Nobeyama 100 km
22 May2016
Distance
100km
Finishers
1,4381,256 men182 women
Winning time
7:33:51h
Median pace
7.64km/h
Pace distribution
1,438 finishers · 7.15–13.22 km/h · mean 7.97
Every finisher ran the same 100 km course, so these paces are directly comparable.
Histogram of finisher pace. 1,438 finishers ranged from 7.15 to 13.22 kilometres per hour, with a mean of 7.97 and a median of 7.64. The busiest band is 7.0 to 7.5 kilometres per hour, with 590 finishers.
Results
Ranks 1,301–1,350 of 1,438
| Rank | Runner | Time | Pace | Cat. | Placing |
|---|---|---|---|---|---|
| 1301 | Fujii, NobukiJapanMan *Kyoto Pref. | 13:52:38h | 7.21 | M40 | 1135th M · 217th M40 |
| 1302 | Shiyouda, KazunoriJapanMan くまのぷ~さん | 13:52:45h | 7.21 | M50 | 1136th M · 190th M50 |
| 1303 | Sakurauti, YoshimiJapanMan *Kanagawa Pref. | 13:52:48h | 7.21 | M40 | 1137th M · 218th M40 |
| 1304 | Terata, GoJapanMan *Fukushima Pref. | 13:52:49h | 7.20 | M23 | 1138th M · 106th M23 |
| 1304 | Fukumori, ShigeruJapanMan ディップ倶楽部 | 13:52:49h | 7.20 | M40 | 1138th M · 219th M40 |
| 1306 | Yamanaka, TakashiJapanMan 森林総研 | 13:52:55h | 7.20 | M50 | 1140th M · 191st M50 |
| 1307 | Minokoshi, ChiyoshiJapanMan *Okinawa Pref. | 13:52:56h | 7.20 | M35 | 1141st M · 144th M35 |
| 1308 | Miyao, ToshikoJapanWoman 信州トレマン | 13:52:57h | 7.20 | W50 | 167th F · 33rd W50 |
| 1309 | Ootsuka, MasahiroJapanMan 走る男吹田 | 13:52:58h | 7.20 | M55 | 1142nd M · 100th M55 |
| 1310 | Takai, ThukasaJapanMan 千里ランラン | 13:53:02h | 7.20 | M45 | 1143rd M · 246th M45 |
| 1311 | Nakamura, TakeshiJapanMan ミネロマン | 13:53:08h | 7.20 | M45 | 1144th M · 247th M45 |
| 1312 | Miura, KojiJapanMan ヴィクトリア | 13:53:10h | 7.20 | M45 | 1145th M · 248th M45 |
| 1313 | Takano, KatsutaJapanMan *Nagano Pref. | 13:53:11h | 7.20 | — | 1146th M |
| 1313 | Soga, KojiJapanMan *Shizuoka Pref. | 13:53:11h | 7.20 | M23 | 1146th M · 107th M23 |
| 1315 | Yamaguchi, ManaeJapanWoman *Aichi Pref. | 13:53:14h | 7.20 | — | 168th F |
| 1315 | Sato, TetsuyaJapanMan 明走会トレラン | 13:53:14h | 7.20 | M45 | 1148th M · 249th M45 |
| 1317 | Koshigaya, EriJapanWoman *Tokyo | 13:53:15h | 7.20 | W40 | 169th F · 44th W40 |
| 1318 | Okubo, MasatakaJapanMan *Aichi Pref. | 13:53:20h | 7.20 | — | 1149th M |
| 1319 | Kitagawa, YukihiroJapanMan *Kanagawa Pref. | 13:53:21h | 7.20 | — | 1150th M |
| 1320 | Iizumi, DaisukeJapanMan 長野マラソンc | 13:53:26h | 7.20 | M55 | 1151st M · 101st M55 |
| 1321 | Shimizu, AkikoJapanWoman *Tokyo | 13:53:29h | 7.20 | W45 | 170th F · 38th W45 |
| 1322 | Ono, ShigeoJapanMan 上昇気流 | 13:53:31h | 7.20 | M45 | 1152nd M · 250th M45 |
| 1323 | Ieda, MasayukiJapanMan 悪道 | 13:53:32h | 7.20 | M40 | 1153rd M · 220th M40 |
| 1324 | Miyajima, KuniharuJapanMan アスロンズ | 13:53:36h | 7.20 | M55 | 1154th M · 102nd M55 |
| 1325 | Isono, KeikoJapanWoman BPM | 13:53:44h | 7.20 | W35 | 171st F · 19th W35 |
| 1326 | Tominaga, JunjiJapanMan はにゅ太郎 | 13:53:45h | 7.20 | M23 | 1155th M · 108th M23 |
| 1327 | Hirose, KatsunoriJapanMan 古河rc | 13:53:53h | 7.20 | — | 1156th M |
| 1328 | Tsukakoshi, KeiJapanMan *Tokyo | 13:54:00h | 7.19 | M35 | 1157th M · 145th M35 |
| 1329 | Takehiro, NobuyukiJapanMan Osaka渋ラン | 13:54:01h | 7.19 | M35 | 1158th M · 146th M35 |
| 1330 | Murai, NobukazuJapanMan 昭和パック | 13:54:02h | 7.19 | M40 | 1159th M · 221st M40 |
| 1331 | Kikuchi, ToshikoJapanWoman *Kanagawa Pref. | 13:54:03h | 7.19 | W45 | 172nd F · 39th W45 |
| 1331 | Fujii, TsuyoshiJapanMan *Tokyo | 13:54:03h | 7.19 | M45 | 1160th M · 251st M45 |
| 1333 | Terada, AkimasaJapanMan こまくさ会 | 13:54:04h | 7.19 | M65 | 1161st M · 16th M65 |
| 1334 | Suzuki, KenJapanMan 健康増進工房 | 13:54:07h | 7.19 | M45 | 1162nd M · 252nd M45 |
| 1335 | Mizoguchi, TetsuJapanMan *Kanagawa Pref. | 13:54:09h | 7.19 | M40 | 1163rd M · 222nd M40 |
| 1336 | Midorikawa, YohheiJapanMan 春日部商会 | 13:54:15h | 7.19 | — | 1164th M |
| 1337 | Matsumoto, DaiJapanMan 上州山楽走 | 13:54:20h | 7.19 | M40 | 1165th M · 223rd M40 |
| 1338 | Omigawa, AkiranoJapanMan 東金市役所 | 13:54:21h | 7.19 | M40 | 1166th M · 224th M40 |
| 1339 | Nakajima, TakahideJapanMan *Osaka Pref. | 13:54:26h | 7.19 | M50 | 1167th M · 192nd M50 |
| 1340 | Tamura, IzumiJapanWoman *Tokyo | 13:54:32h | 7.19 | W45 | 173rd F · 40th W45 |
| 1341 | Narita, IsamuJapanMan NTN | 13:54:35h | 7.19 | M45 | 1168th M · 253rd M45 |
| 1342 | Sato, MamikoJapanWoman *Saitama Pref. | 13:54:44h | 7.19 | W40 | 174th F · 45th W40 |
| 1342 | Kurosawa, KazuyoshiJapanMan *Saitama Pref. | 13:54:44h | 7.19 | M55 | 1169th M · 103rd M55 |
| 1344 | Harasawa, YoshinoriJapanMan *Shizuoka Pref. | 13:54:50h | 7.19 | M55 | 1170th M · 104th M55 |
| 1345 | Matsubayashi, HiroshiJapanMan パッション | 13:54:51h | 7.19 | M40 | 1171st M · 225th M40 |
| 1346 | Kawata, KatsuoJapanMan *Kanagawa Pref. | 13:54:58h | 7.19 | M40 | 1172nd M · 226th M40 |
| 1347 | Kadota, TakeshiJapanMan *Chiba Pref. | 13:55:00h | 7.19 | M23 | 1173rd M · 109th M23 |
| 1347 | Morimoto, YasuhiroJapanMan *Tokyo | 13:55:00h | 7.19 | M23 | 1173rd M · 109th M23 |
| 1347 | Shiba, HayatoJapanMan *Tokyo | 13:55:00h | 7.19 | — | 1173rd M |
| 1350 | Sudo, ShujiJapanMan *Tokyo | 13:55:03h | 7.18 | M55 | 1176th M · 105th M55 |
- 1301Fujii, NobukiJapanMan*Kyoto Pref.1135th M · 217th M40Time13:52:38hPace7.21Cat.M40
- 1302Shiyouda, KazunoriJapanManくまのぷ~さん1136th M · 190th M50Time13:52:45hPace7.21Cat.M50
- 1303Sakurauti, YoshimiJapanMan*Kanagawa Pref.1137th M · 218th M40Time13:52:48hPace7.21Cat.M40
- 1304Terata, GoJapanMan*Fukushima Pref.1138th M · 106th M23Time13:52:49hPace7.20Cat.M23
- 1304Fukumori, ShigeruJapanManディップ倶楽部1138th M · 219th M40Time13:52:49hPace7.20Cat.M40
- 1306Yamanaka, TakashiJapanMan森林総研1140th M · 191st M50Time13:52:55hPace7.20Cat.M50
- 1307Minokoshi, ChiyoshiJapanMan*Okinawa Pref.1141st M · 144th M35Time13:52:56hPace7.20Cat.M35
- 1308Miyao, ToshikoJapanWoman信州トレマン167th F · 33rd W50Time13:52:57hPace7.20Cat.W50
- 1309Ootsuka, MasahiroJapanMan走る男吹田1142nd M · 100th M55Time13:52:58hPace7.20Cat.M55
- 1310Takai, ThukasaJapanMan千里ランラン1143rd M · 246th M45Time13:53:02hPace7.20Cat.M45
- 1311Nakamura, TakeshiJapanManミネロマン1144th M · 247th M45Time13:53:08hPace7.20Cat.M45
- 1312Miura, KojiJapanManヴィクトリア1145th M · 248th M45Time13:53:10hPace7.20Cat.M45
- 1313Takano, KatsutaJapanMan*Nagano Pref.1146th MTime13:53:11hPace7.20
- 1313Soga, KojiJapanMan*Shizuoka Pref.1146th M · 107th M23Time13:53:11hPace7.20Cat.M23
- 1315Yamaguchi, ManaeJapanWoman*Aichi Pref.168th FTime13:53:14hPace7.20
- 1315Sato, TetsuyaJapanMan明走会トレラン1148th M · 249th M45Time13:53:14hPace7.20Cat.M45
- 1317Koshigaya, EriJapanWoman*Tokyo169th F · 44th W40Time13:53:15hPace7.20Cat.W40
- 1318Okubo, MasatakaJapanMan*Aichi Pref.1149th MTime13:53:20hPace7.20
- 1319Kitagawa, YukihiroJapanMan*Kanagawa Pref.1150th MTime13:53:21hPace7.20
- 1320Iizumi, DaisukeJapanMan長野マラソンc1151st M · 101st M55Time13:53:26hPace7.20Cat.M55
- 1321Shimizu, AkikoJapanWoman*Tokyo170th F · 38th W45Time13:53:29hPace7.20Cat.W45
- 1322Ono, ShigeoJapanMan上昇気流1152nd M · 250th M45Time13:53:31hPace7.20Cat.M45
- 1323Ieda, MasayukiJapanMan悪道1153rd M · 220th M40Time13:53:32hPace7.20Cat.M40
- 1324Miyajima, KuniharuJapanManアスロンズ1154th M · 102nd M55Time13:53:36hPace7.20Cat.M55
- 1325Isono, KeikoJapanWomanBPM171st F · 19th W35Time13:53:44hPace7.20Cat.W35
- 1326Tominaga, JunjiJapanManはにゅ太郎1155th M · 108th M23Time13:53:45hPace7.20Cat.M23
- 1327Hirose, KatsunoriJapanMan古河rc1156th MTime13:53:53hPace7.20
- 1328Tsukakoshi, KeiJapanMan*Tokyo1157th M · 145th M35Time13:54:00hPace7.19Cat.M35
- 1329Takehiro, NobuyukiJapanManOsaka渋ラン1158th M · 146th M35Time13:54:01hPace7.19Cat.M35
- 1330Murai, NobukazuJapanMan昭和パック1159th M · 221st M40Time13:54:02hPace7.19Cat.M40
- 1331Kikuchi, ToshikoJapanWoman*Kanagawa Pref.172nd F · 39th W45Time13:54:03hPace7.19Cat.W45
- 1331Fujii, TsuyoshiJapanMan*Tokyo1160th M · 251st M45Time13:54:03hPace7.19Cat.M45
- 1333Terada, AkimasaJapanManこまくさ会1161st M · 16th M65Time13:54:04hPace7.19Cat.M65
- 1334Suzuki, KenJapanMan健康増進工房1162nd M · 252nd M45Time13:54:07hPace7.19Cat.M45
- 1335Mizoguchi, TetsuJapanMan*Kanagawa Pref.1163rd M · 222nd M40Time13:54:09hPace7.19Cat.M40
- 1336Midorikawa, YohheiJapanMan春日部商会1164th MTime13:54:15hPace7.19
- 1337Matsumoto, DaiJapanMan上州山楽走1165th M · 223rd M40Time13:54:20hPace7.19Cat.M40
- 1338Omigawa, AkiranoJapanMan東金市役所1166th M · 224th M40Time13:54:21hPace7.19Cat.M40
- 1339Nakajima, TakahideJapanMan*Osaka Pref.1167th M · 192nd M50Time13:54:26hPace7.19Cat.M50
- 1340Tamura, IzumiJapanWoman*Tokyo173rd F · 40th W45Time13:54:32hPace7.19Cat.W45
- 1341Narita, IsamuJapanManNTN1168th M · 253rd M45Time13:54:35hPace7.19Cat.M45
- 1342Sato, MamikoJapanWoman*Saitama Pref.174th F · 45th W40Time13:54:44hPace7.19Cat.W40
- 1342Kurosawa, KazuyoshiJapanMan*Saitama Pref.1169th M · 103rd M55Time13:54:44hPace7.19Cat.M55
- 1344Harasawa, YoshinoriJapanMan*Shizuoka Pref.1170th M · 104th M55Time13:54:50hPace7.19Cat.M55
- 1345Matsubayashi, HiroshiJapanManパッション1171st M · 225th M40Time13:54:51hPace7.19Cat.M40
- 1346Kawata, KatsuoJapanMan*Kanagawa Pref.1172nd M · 226th M40Time13:54:58hPace7.19Cat.M40
- 1347Kadota, TakeshiJapanMan*Chiba Pref.1173rd M · 109th M23Time13:55:00hPace7.19Cat.M23
- 1347Morimoto, YasuhiroJapanMan*Tokyo1173rd M · 109th M23Time13:55:00hPace7.19Cat.M23
- 1347Shiba, HayatoJapanMan*Tokyo1173rd MTime13:55:00hPace7.19
- 1350Sudo, ShujiJapanMan*Tokyo1176th M · 105th M55Time13:55:03hPace7.18Cat.M55
Showing ranks 1,301–1,350 of 1,438